Time;durP1;ratioP1;P1;durP2;ratioP2;P2;SDS_P1;SDS_P2;PMS_P1;PMS_P2;Temp;Humidity;BMP_temperature;BMP_pressure;BME280_temperature;BME280_humidity;BME280_pressure;Samples;Min_cycle;Max_cycle;Signal;HPM_P1;HPM_P2
2022/09/12 14:58:38;;;;;;;;;73.25;50.50;;;;;20.55;63.61;98364.38;5091045;27;102747;-88
2022/09/12 15:01:05;;;;;;;;;47.50;37.00;;;;;20.63;62.73;98366.56;5020066;27;102331;-89
2022/09/12 15:03:44;;;;;;;;;43.25;33.75;;;;;20.68;61.73;98374.84;5007073;27;103163;-89
2022/09/12 15:06:30;;;;;;;;;41.75;32.25;;;;;20.70;61.92;98367.16;5001367;27;103239;-89
2022/09/12 15:09:01;;;;;;;;;38.00;27.33;;;;;20.71;60.37;98368.81;5016160;27;102675;-87
2022/09/12 15:11:28;;;;;;;;;30.67;24.00;;;;;20.70;58.27;98373.47;5002735;27;102437;-89
2022/09/12 15:13:55;;;;;;;;;19.33;15.33;;;;;20.62;54.54;98367.69;5003508;27;105001;-89
2022/09/12 15:16:22;;;;;;;;;14.67;10.00;;;;;20.58;54.41;98366.59;4768337;28;102631;-89
2022/09/12 15:18:49;;;;;;;;;8.00;8.00;;;;;20.57;54.02;98362.19;4996438;27;102637;-86
2022/09/12 15:21:17;;;;;;;;;6.67;6.67;;;;;20.57;53.29;98368.50;4995079;27;102351;-89
2022/09/12 15:23:46;;;;;;;;;8.67;7.67;;;;;20.58;53.43;98369.34;4995129;27;104254;-88
2022/09/12 15:26:20;;;;;;;;;5.00;3.33;;;;;20.58;52.35;98370.13;5000250;27;102472;-88
2022/09/12 15:28:48;;;;;;;;;4.33;3.67;;;;;20.58;52.30;98381.13;4980207;27;102258;-91
2022/09/12 15:31:25;;;;;;;;;5.00;5.00;;;;;20.57;52.35;98374.00;4999064;27;102425;-91
2022/09/12 15:33:52;;;;;;;;;3.33;3.00;;;;;20.58;52.10;98377.56;4999313;27;104207;-89
2022/09/12 15:36:20;;;;;;;;;3.33;3.33;;;;;20.57;52.23;98378.66;4995846;27;102376;-90
2022/09/12 15:38:48;;;;;;;;;5.00;4.00;;;;;20.53;51.76;98374.81;5000938;27;111276;-90
2022/09/12 15:41:16;;;;;;;;;3.33;3.33;;;;;20.51;51.75;98382.50;5002045;28;102312;-90
2022/09/12 15:43:44;;;;;;;;;3.67;3.67;;;;;20.47;51.64;98377.53;4990230;28;103740;-90
2022/09/12 15:46:11;;;;;;;;;1.67;1.67;;;;;20.44;50.95;98377.25;4995994;27;102124;-91
2022/09/12 15:48:39;;;;;;;;;2.00;2.00;;;;;20.42;51.70;98385.75;4996133;27;102824;-91
2022/09/12 15:51:13;;;;;;;;;3.33;2.67;;;;;20.40;51.24;98387.13;4986760;27;102414;-90
2022/09/12 15:53:41;;;;;;;;;3.67;2.33;;;;;20.40;51.25;98382.44;5005695;28;108728;-91
2022/09/12 15:56:08;;;;;;;;;3.00;3.00;;;;;20.39;51.95;98389.06;4983485;28;102434;-91
2022/09/12 15:58:35;;;;;;;;;3.67;2.67;;;;;20.36;52.15;98384.09;4972704;28;102832;-91
2022/09/12 16:01:16;;;;;;;;;4.00;2.67;;;;;20.34;52.15;98391.78;4975643;28;102602;-90
2022/09/12 16:03:45;;;;;;;;;2.33;2.33;;;;;20.30;51.42;98385.19;4978470;28;104115;-90
2022/09/12 16:06:14;;;;;;;;;3.33;2.67;;;;;20.27;52.69;98384.84;4968121;28;102533;-91
2022/09/12 16:08:41;;;;;;;;;2.67;2.67;;;;;20.22;53.19;98385.63;4971000;28;102618;-92
2022/09/12 16:11:12;;;;;;;;;3.00;2.00;;;;;20.20;53.07;98384.28;4962561;28;102234;-91
2022/09/12 16:13:39;;;;;;;;;2.67;2.67;;;;;20.17;52.99;98391.13;4960450;28;109077;-91
2022/09/12 16:16:07;;;;;;;;;2.67;2.67;;;;;20.14;53.29;98388.91;4958256;28;102638;-90
2022/09/12 16:18:34;;;;;;;;;3.33;3.33;;;;;20.12;53.39;98388.38;4960931;28;102464;-91
2022/09/12 16:21:00;;;;;;;;;1.67;1.67;;;;;20.11;53.26;98380.38;4965831;28;102453;-91
2022/09/12 16:23:28;;;;;;;;;3.00;2.67;;;;;20.08;52.80;98387.25;4969480;28;103431;-91
2022/09/12 16:25:59;;;;;;;;;3.00;2.33;;;;;20.06;52.75;98378.44;4968879;28;102396;-92
2022/09/12 16:28:26;;;;;;;;;3.00;3.00;;;;;20.03;52.58;98381.75;4964916;28;102156;-92
2022/09/12 16:30:56;;;;;;;;;2.67;2.67;;;;;20.06;52.91;98389.44;4944870;28;102235;-90
2022/09/12 16:33:24;;;;;;;;;1.00;1.00;;;;;20.09;52.85;98388.88;4963149;28;104215;-91
2022/09/12 16:35:53;;;;;;;;;2.67;2.67;;;;;20.11;53.23;98386.72;4962263;28;102416;-90
2022/09/12 16:38:21;;;;;;;;;2.33;2.33;;;;;20.15;53.41;98387.81;4961594;28;102755;-90
2022/09/12 16:40:48;;;;;;;;;2.67;1.67;;;;;20.17;53.67;98385.66;4965847;28;102147;-91
2022/09/12 16:43:18;;;;;;;;;2.67;1.67;;;;;20.19;53.77;98388.94;4960058;28;104050;-90
2022/09/12 16:45:45;;;;;;;;;2.00;2.00;;;;;20.17;53.89;98384.81;4957307;28;102367;-90
2022/09/12 16:48:12;;;;;;;;;2.00;2.00;;;;;20.21;54.24;98386.75;4964342;28;103506;-91
2022/09/12 16:50:39;;;;;;;;;2.00;2.00;;;;;20.24;54.54;98385.38;4959577;28;103092;-90
2022/09/12 16:53:06;;;;;;;;;2.67;2.67;;;;;20.24;54.28;98383.47;4951831;28;103337;-89
2022/09/12 16:55:33;;;;;;;;;1.00;0.67;;;;;20.25;54.31;98387.88;4959704;28;102527;-88
2022/09/12 16:58:00;;;;;;;;;2.67;2.67;;;;;20.25;54.61;98382.38;4962407;28;102679;-88
2022/09/12 17:00:27;;;;;;;;;2.00;2.00;;;;;20.26;54.78;98383.22;4965697;28;102652;-88
2022/09/12 17:02:54;;;;;;;;;2.33;2.33;;;;;20.26;55.03;98384.00;4954238;28;104595;-88
2022/09/12 17:05:22;;;;;;;;;2.00;2.00;;;;;20.26;55.07;98384.00;4959503;28;102152;-89
2022/09/12 17:07:49;;;;;;;;;3.00;3.00;;;;;20.27;55.02;98384.84;4959291;28;102221;-89
2022/09/12 17:10:16;;;;;;;;;1.67;1.67;;;;;20.26;55.13;98386.75;4961248;28;102794;-87
2022/09/12 17:12:44;;;;;;;;;4.33;3.33;;;;;20.27;55.12;98384.84;4961277;28;103551;-87
2022/09/12 17:15:11;;;;;;;;;4.67;4.67;;;;;20.27;55.23;98390.34;4965354;28;102405;-88
2022/09/12 17:17:38;;;;;;;;;3.00;2.00;;;;;20.29;54.75;98393.66;4958605;28;104522;-88
2022/09/12 17:20:05;;;;;;;;;2.67;1.33;;;;;20.25;54.46;98387.88;4959450;28;102568;-88
2022/09/12 17:22:33;;;;;;;;;3.00;3.00;;;;;20.22;53.92;98393.09;4960359;28;104228;-88
2022/09/12 17:25:01;;;;;;;;;3.00;2.00;;;;;20.17;53.06;98393.88;4962516;28;102171;-90
2022/09/12 17:27:28;;;;;;;;;5.33;3.33;;;;;20.08;53.04;98406.47;4964893;28;105774;-90
2022/09/12 17:29:55;;;;;;;;;3.67;3.67;;;;;20.00;53.44;98398.72;4966405;28;102489;-91
2022/09/12 17:32:22;;;;;;;;;4.33;4.33;;;;;19.91;53.25;98405.81;4961268;28;104128;-91
2022/09/12 17:34:49;;;;;;;;;4.67;4.33;;;;;19.81;53.46;98411.25;4957744;28;102178;-91
2022/09/12 17:37:17;;;;;;;;;4.00;3.67;;;;;19.78;53.78;98418.09;4963027;28;102533;-92
2022/09/12 17:39:44;;;;;;;;;5.00;4.33;;;;;19.82;54.05;98412.88;4959540;28;104174;-92
2022/09/12 17:42:11;;;;;;;;;3.33;3.00;;;;;19.83;54.30;98406.31;4965598;28;109197;-92
2022/09/12 17:44:39;;;;;;;;;4.00;4.00;;;;;19.85;54.57;98410.47;4960138;28;102490;-93
2022/09/12 17:47:06;;;;;;;;;3.33;3.33;;;;;19.87;54.50;98418.41;4955064;28;102452;-93
2022/09/12 17:49:33;;;;;;;;;4.00;4.00;;;;;19.90;54.38;98423.38;4965704;28;102427;-92
2022/09/12 17:52:01;;;;;;;;;5.00;4.00;;;;;19.92;54.45;98422.00;4965624;28;104311;-93
2022/09/12 17:54:28;;;;;;;;;3.00;3.00;;;;;19.92;54.93;98427.50;4963263;28;102256;-93
2022/09/12 17:56:55;;;;;;;;;4.00;4.00;;;;;19.95;54.71;98423.38;4963147;28;102678;-93
2022/09/12 17:59:23;;;;;;;;;4.00;3.67;;;;;19.95;55.18;98426.97;4960504;28;102210;-93
2022/09/12 18:04:36;;;;;;;;;5.00;5.00;;;;;19.98;54.94;98439.34;4960376;28;102519;-92
2022/09/12 18:07:03;;;;;;;;;4.33;3.33;;;;;19.99;55.14;98435.50;4967989;28;102314;-92
2022/09/12 18:09:31;;;;;;;;;6.00;4.00;;;;;20.00;55.46;98428.91;4957971;28;102443;-93
2022/09/12 18:11:58;;;;;;;;;3.67;3.67;;;;;19.98;55.21;98425.63;4954264;28;104231;-92
2022/09/12 18:14:27;;;;;;;;;7.00;4.33;;;;;19.99;55.60;98427.28;4958454;28;103184;-92
2022/09/12 18:16:56;;;;;;;;;2.67;2.67;;;;;20.00;55.64;98437.16;4957304;28;103948;-92
2022/09/12 18:19:23;;;;;;;;;5.00;5.00;;;;;19.99;55.63;98435.50;4950592;28;102582;-93
2022/09/12 18:21:50;;;;;;;;;4.33;3.67;;;;;19.99;55.66;98427.28;4955663;28;104016;-93
2022/09/12 18:24:17;;;;;;;;;5.00;4.00;;;;;19.99;55.83;98430.81;4955230;28;102317;-92
2022/09/12 18:26:44;;;;;;;;;4.00;4.00;;;;;20.00;56.04;98437.16;4961444;28;102575;-93
2022/09/12 18:29:11;;;;;;;;;4.00;3.67;;;;;20.00;55.84;98434.41;4957837;28;102655;-93
2022/09/12 18:31:38;;;;;;;;;5.00;4.67;;;;;19.99;55.98;98443.75;4916776;28;104337;-93
2022/09/12 18:34:11;;;;;;;;;5.00;4.00;;;;;19.99;56.02;98447.28;4953850;28;103384;-93
2022/09/12 18:36:42;;;;;;;;;4.67;4.67;;;;;20.01;55.87;98444.28;4947908;28;102502;-92
2022/09/12 18:39:09;;;;;;;;;6.33;4.00;;;;;19.98;55.77;98431.09;4957774;28;102846;-92
2022/09/12 18:41:36;;;;;;;;;3.67;3.67;;;;;20.01;55.76;98447.03;4949620;28;103847;-92
2022/09/12 18:44:04;;;;;;;;;5.00;4.67;;;;;20.00;56.15;98439.88;4950351;28;103634;-93
2022/09/12 18:46:31;;;;;;;;;4.67;4.00;;;;;20.01;56.22;98445.13;4947271;28;103610;-93
2022/09/12 18:48:58;;;;;;;;;5.00;4.67;;;;;20.00;56.16;98443.47;4958376;28;104051;-92
2022/09/12 18:51:30;;;;;;;;;3.00;3.00;;;;;20.03;56.16;98450.34;4932131;28;104198;-92
2022/09/12 18:54:02;;;;;;;;;5.67;5.33;;;;;20.04;56.06;98446.50;4934296;28;103590;-92
2022/09/12 18:56:33;;;;;;;;;5.00;4.00;;;;;20.02;56.14;98448.69;4936622;28;102322;-92
2022/09/12 18:59:00;;;;;;;;;3.67;3.67;;;;;20.04;56.32;98454.72;4936949;28;103860;-93
2022/09/12 19:01:29;;;;;;;;;4.33;4.00;;;;;20.04;56.08;98446.50;4938142;28;104223;-93
2022/09/12 19:03:56;;;;;;;;;4.67;4.33;;;;;20.05;56.06;98453.66;4933483;28;102801;-92
2022/09/12 19:06:28;;;;;;;;;5.33;5.00;;;;;20.04;56.36;98446.50;4934550;28;103656;-92
2022/09/12 19:08:57;;;;;;;;;3.67;3.67;;;;;20.04;56.80;98444.59;4911679;28;103443;-92
2022/09/12 19:11:29;;;;;;;;;3.00;3.00;;;;;20.04;56.20;98450.06;4896953;28;104257;-92
2022/09/12 19:13:56;;;;;;;;;4.00;4.00;;;;;20.05;56.41;98449.00;4922334;28;102623;-93
2022/09/12 19:16:25;;;;;;;;;3.33;3.33;;;;;20.05;56.48;98445.41;4927179;28;103508;-93
2022/09/12 19:18:54;;;;;;;;;4.33;3.67;;;;;20.07;56.08;98446.00;4933627;28;104173;-89
2022/09/12 19:21:23;;;;;;;;;3.33;3.33;;;;;20.08;56.26;98441.31;4927959;28;104117;-93
2022/09/12 19:23:51;;;;;;;;;3.67;2.67;;;;;20.09;56.03;98445.69;4917626;28;102237;-92
2022/09/12 19:26:19;;;;;;;;;4.33;4.33;;;;;20.09;56.16;98437.47;4929894;28;102638;-93
2022/09/12 19:28:46;;;;;;;;;2.67;2.67;;;;;20.07;56.20;98440.50;4917265;28;104107;-93
2022/09/12 19:31:15;;;;;;;;;4.00;4.00;;;;;20.07;56.23;98429.53;4932030;28;104331;-93
2022/09/12 19:33:43;;;;;;;;;3.00;3.00;;;;;20.07;56.30;98429.53;4925522;28;102266;-92
2022/09/12 19:36:11;;;;;;;;;6.00;3.33;;;;;20.08;56.39;98439.41;4923995;28;103305;-93
2022/09/12 19:38:58;;;;;;;;;5.00;4.00;;;;;20.08;56.46;98428.44;4912311;28;105563;-92
2022/09/12 19:41:25;;;;;;;;;4.00;4.00;;;;;20.11;56.40;98429.81;4939229;28;105824;-92
2022/09/12 19:43:54;;;;;;;;;4.00;4.00;;;;;20.09;56.19;98432.81;4942628;28;103743;-92
2022/09/12 19:46:22;;;;;;;;;4.00;4.00;;;;;20.09;56.66;98431.97;4938727;28;104105;-93
2022/09/12 19:48:50;;;;;;;;;6.00;4.33;;;;;20.08;56.62;98436.66;4945708;28;103706;-92
2022/09/12 19:51:17;;;;;;;;;3.67;3.67;;;;;20.07;56.81;98435.00;4946657;28;104053;-92
2022/09/12 19:53:44;;;;;;;;;4.00;3.00;;;;;20.08;56.53;98435.84;4943300;28;103025;-92
2022/09/12 19:56:12;;;;;;;;;4.00;4.00;;;;;20.09;56.74;98432.81;4945783;28;102171;-93
2022/09/12 19:58:41;;;;;;;;;3.67;3.33;;;;;20.11;56.45;98429.81;4943176;28;102704;-92
2022/09/12 20:01:10;;;;;;;;;3.33;2.33;;;;;20.10;56.74;98428.16;4956065;28;104155;-93
2022/09/12 20:03:37;;;;;;;;;2.67;2.67;;;;;20.10;56.55;98426.22;4959116;28;102677;-91
2022/09/12 20:06:05;;;;;;;;;3.00;3.00;;;;;20.10;56.76;98426.22;4957673;28;104587;-92
2022/09/12 20:08:32;;;;;;;;;3.00;2.67;;;;;20.11;56.43;98425.16;4954293;28;103860;-93
2022/09/12 20:11:00;;;;;;;;;4.33;3.67;;;;;20.11;56.59;98413.34;4966300;28;104072;-90
2022/09/12 20:13:27;;;;;;;;;2.67;2.67;;;;;20.09;56.78;98413.59;4945220;28;102507;-92
2022/09/12 20:15:54;;;;;;;;;5.33;4.00;;;;;20.11;56.63;98416.91;4955678;28;102681;-92
2022/09/12 20:18:21;;;;;;;;;2.67;2.67;;;;;20.10;56.96;98411.69;4958849;28;102827;-92
2022/09/12 20:20:48;;;;;;;;;2.00;2.00;;;;;20.10;56.51;98411.69;4954470;28;104047;-94
2022/09/12 20:23:14;;;;;;;;;2.33;2.33;;;;;20.09;56.54;98408.09;4964459;28;102721;-92
2022/09/12 20:25:41;;;;;;;;;2.67;2.67;;;;;20.09;56.91;98410.84;4962685;28;102266;-91
2022/09/12 20:28:08;;;;;;;;;2.67;2.67;;;;;20.07;56.89;98396.56;4952758;28;102161;-92
2022/09/12 20:30:35;;;;;;;;;4.00;3.67;;;;;20.06;56.86;98403.16;4942784;28;104063;-92
2022/09/12 20:33:02;;;;;;;;;2.67;2.67;;;;;20.05;56.79;98404.25;4940486;28;102249;-92
2022/09/12 20:35:29;;;;;;;;;4.67;3.67;;;;;20.06;56.83;98405.91;4905257;28;103854;-87
2022/09/12 20:37:56;;;;;;;;;3.67;3.67;;;;;20.07;56.83;98407.56;4949590;28;102216;-92
2022/09/12 20:40:23;;;;;;;;;4.00;3.00;;;;;20.06;56.98;98411.38;4943524;28;104228;-92
2022/09/12 20:42:50;;;;;;;;;3.67;2.67;;;;;20.07;56.85;98414.97;4945764;28;103976;-92
2022/09/12 20:45:18;;;;;;;;;2.00;2.00;;;;;20.07;57.19;98407.56;4940631;28;102709;-92
2022/09/12 20:47:45;;;;;;;;;3.00;3.00;;;;;20.07;57.10;98399.31;4938264;28;103296;-93
2022/09/12 20:50:12;;;;;;;;;3.33;3.33;;;;;20.05;56.88;98404.25;4943246;28;104164;-92
2022/09/12 20:52:39;;;;;;;;;2.67;2.67;;;;;20.08;57.30;98402.91;4946223;28;103606;-92
2022/09/12 20:55:06;;;;;;;;;3.00;3.00;;;;;20.08;57.27;98405.63;4943663;28;102495;-92
2022/09/12 20:57:33;;;;;;;;;5.33;4.00;;;;;20.08;57.32;98406.47;4937526;28;103155;-92
2022/09/12 21:00:00;;;;;;;;;3.33;3.00;;;;;20.05;57.02;98407.81;4946638;28;104077;-90
2022/09/12 21:02:28;;;;;;;;;5.00;4.33;;;;;20.06;57.13;98403.16;4947683;28;103393;-91
2022/09/12 21:04:56;;;;;;;;;3.67;2.33;;;;;20.06;57.13;98397.66;4943205;28;103244;-90
2022/09/12 21:07:23;;;;;;;;;3.67;3.67;;;;;20.04;57.54;98402.56;4942586;28;102816;-92
2022/09/12 21:09:50;;;;;;;;;3.00;3.00;;;;;20.04;57.42;98403.41;4941162;28;104101;-92
2022/09/12 21:12:17;;;;;;;;;3.67;3.67;;;;;20.00;57.26;98390.47;4937774;28;102508;-92
2022/09/12 21:14:44;;;;;;;;;4.67;3.00;;;;;20.02;57.65;98391.06;4942792;28;102553;-92
2022/09/12 21:17:11;;;;;;;;;3.00;3.00;;;;;20.00;57.37;98391.31;4953058;28;102675;-92
2022/09/12 21:19:38;;;;;;;;;2.67;2.67;;;;;19.99;57.46;98389.66;4939475;28;103954;-92
2022/09/12 21:22:05;;;;;;;;;3.67;3.67;;;;;20.00;57.50;98390.47;4942259;28;103086;-91
2022/09/12 21:24:32;;;;;;;;;3.67;3.67;;;;;19.98;57.65;98388.03;4943422;28;103528;-92
2022/09/12 21:26:59;;;;;;;;;4.67;4.67;;;;;19.99;57.62;98391.59;4946476;28;103539;-92
2022/09/12 21:29:31;;;;;;;;;3.67;2.33;;;;;20.00;57.46;98395.97;4937603;28;109081;-91
2022/09/12 21:31:58;;;;;;;;;7.00;4.00;;;;;20.00;57.63;98387.75;4946567;28;102402;-91
2022/09/12 21:34:25;;;;;;;;;4.33;4.00;;;;;20.01;57.26;98389.41;4947498;28;102586;-92
2022/09/12 21:36:52;;;;;;;;;3.00;3.00;;;;;19.99;57.46;98388.84;4941183;28;102559;-92
2022/09/12 21:39:20;;;;;;;;;3.00;3.00;;;;;19.98;57.75;98392.69;4943213;28;104145;-92
2022/09/12 21:41:47;;;;;;;;;4.67;4.67;;;;;19.97;57.88;98389.13;4945324;28;104302;-92
2022/09/12 21:44:14;;;;;;;;;3.67;3.67;;;;;19.97;57.87;98391.84;4939951;28;103336;-92
2022/09/12 21:46:41;;;;;;;;;4.33;3.67;;;;;19.96;57.67;98386.63;4940216;28;103511;-92
2022/09/12 21:49:08;;;;;;;;;4.00;4.00;;;;;19.95;57.84;98393.19;4945057;28;104082;-92
2022/09/12 21:51:35;;;;;;;;;4.67;4.67;;;;;19.94;57.74;98397.06;4941624;28;103554;-92
2022/09/12 21:54:02;;;;;;;;;5.00;4.67;;;;;19.94;57.83;98397.06;4945246;28;103553;-91
2022/09/12 21:56:30;;;;;;;;;4.33;3.67;;;;;19.90;58.17;98394.00;4948435;28;102449;-92
2022/09/12 21:58:57;;;;;;;;;4.33;3.67;;;;;19.89;58.40;98384.13;4942578;28;108971;-92
2022/09/12 22:01:24;;;;;;;;;5.00;5.00;;;;;19.91;58.35;98394.81;4941435;28;103579;-92
2022/09/12 22:03:52;;;;;;;;;4.00;4.00;;;;;19.89;58.26;98397.03;4940160;28;103049;-92
2022/09/12 22:06:18;;;;;;;;;5.00;5.00;;;;;19.90;58.24;98387.72;4929137;28;102591;-92
2022/09/12 22:08:48;;;;;;;;;4.00;4.00;;;;;19.91;58.13;98392.09;4928157;28;104401;-92
2022/09/12 22:11:17;;;;;;;;;4.00;4.00;;;;;19.90;58.04;98379.47;4930984;28;103323;-92
2022/09/12 22:13:44;;;;;;;;;4.33;4.33;;;;;19.91;57.91;98383.84;4939288;28;102444;-92
2022/09/12 22:16:11;;;;;;;;;3.33;3.33;;;;;19.90;58.14;98372.03;4941856;28;102486;-92
2022/09/12 22:18:39;;;;;;;;;3.33;3.33;;;;;19.89;57.89;98370.41;4941927;28;104341;-92
2022/09/12 22:21:08;;;;;;;;;4.33;4.00;;;;;19.90;58.24;98376.72;4943610;28;102337;-92
2022/09/12 22:26:20;;;;;;;;;4.67;4.67;;;;;19.88;58.06;98373.41;4946241;28;110339;-92
2022/09/12 22:28:47;;;;;;;;;4.00;4.00;;;;;19.87;58.18;98367.09;4939791;28;104054;-92
2022/09/12 22:31:15;;;;;;;;;6.00;6.00;;;;;19.87;58.27;98366.28;4938447;28;102868;-93
2022/09/12 22:33:42;;;;;;;;;3.67;3.67;;;;;19.86;58.40;98364.59;4941740;28;103458;-92
2022/09/12 22:36:09;;;;;;;;;1.33;1.33;;;;;19.86;58.71;98361.88;4939235;28;102558;-93
2022/09/12 22:38:36;;;;;;;;;3.00;3.00;;;;;19.83;58.25;98359.66;4937621;28;104258;-93
2022/09/12 22:41:09;;;;;;;;;6.33;3.33;;;;;19.83;58.28;98363.25;4934363;28;102725;-92
2022/09/12 22:43:36;;;;;;;;;5.00;4.00;;;;;19.82;58.35;98361.56;4940743;28;102464;-92
2022/09/12 22:46:11;;;;;;;;;4.00;4.00;;;;;19.82;58.60;98356.09;4939077;28;102241;-92
2022/09/12 22:48:38;;;;;;;;;5.67;5.00;;;;;19.82;58.61;98358.00;4954045;28;105091;-92
2022/09/12 22:51:05;;;;;;;;;4.33;4.33;;;;;19.83;58.33;98362.41;4923768;28;103452;-93
2022/09/12 22:53:32;;;;;;;;;6.00;5.67;;;;;19.81;58.59;98365.41;4944682;28;103937;-91
2022/09/12 22:55:59;;;;;;;;;5.00;4.00;;;;;19.82;58.29;98369.81;4947608;28;102234;-93
2022/09/12 22:58:26;;;;;;;;;6.00;6.00;;;;;19.82;58.17;98366.25;4941811;28;108689;-92
2022/09/12 23:00:53;;;;;;;;;4.67;4.00;;;;;19.81;58.53;98368.16;4942751;28;102231;-92
2022/09/12 23:03:20;;;;;;;;;3.67;3.33;;;;;19.81;58.27;98367.34;4943600;28;102293;-92
2022/09/12 23:05:48;;;;;;;;;4.00;4.00;;;;;19.80;58.54;98373.94;4942724;28;102742;-92
2022/09/12 23:08:15;;;;;;;;;5.33;4.00;;;;;19.79;58.63;98367.59;4941237;28;104078;-92
2022/09/12 23:10:42;;;;;;;;;4.00;4.00;;;;;19.77;58.39;98364.28;4940991;28;104106;-92
2022/09/12 23:13:09;;;;;;;;;4.50;4.50;;;;;19.78;58.61;98365.94;4935238;28;102277;-93
2022/09/12 23:15:36;;;;;;;;;3.67;3.67;;;;;19.77;58.75;98364.28;4939993;28;103212;-92
2022/09/12 23:18:03;;;;;;;;;4.00;4.00;;;;;19.76;58.94;98361.84;4935607;28;104107;-92
2022/09/12 23:20:30;;;;;;;;;5.00;5.00;;;;;19.76;58.68;98351.69;4955618;28;102464;-92
2022/09/12 23:22:57;;;;;;;;;5.00;5.00;;;;;19.75;58.66;98352.78;4945752;28;102536;-93
2022/09/12 23:25:25;;;;;;;;;5.33;4.67;;;;;19.76;58.94;98359.09;4947610;28;103663;-92
2022/09/12 23:27:52;;;;;;;;;5.67;5.00;;;;;19.76;58.52;98357.19;4945811;28;104095;-92
2022/09/12 23:30:20;;;;;;;;;3.67;3.67;;;;;19.76;58.74;98353.59;4946225;28;102609;-92
2022/09/12 23:32:50;;;;;;;;;6.00;4.67;;;;;19.76;58.79;98359.91;4944507;28;103253;-93
2022/09/12 23:35:18;;;;;;;;;4.67;4.67;;;;;19.77;58.46;98358.00;4950296;28;102455;-92
2022/09/12 23:37:46;;;;;;;;;4.00;4.00;;;;;19.75;58.35;98355.53;4947734;28;104041;-92
2022/09/12 23:40:13;;;;;;;;;5.00;5.00;;;;;19.74;58.42;98353.03;4946140;28;102522;-93
2022/09/12 23:42:40;;;;;;;;;5.00;3.33;;;;;19.74;58.71;98353.03;4948060;28;103477;-92
2022/09/12 23:45:07;;;;;;;;;4.67;4.33;;;;;19.73;58.44;98349.47;4944941;28;103515;-92
2022/09/12 23:47:34;;;;;;;;;4.33;4.33;;;;;19.73;58.54;98351.38;4946587;28;104347;-93
2022/09/12 23:50:01;;;;;;;;;6.00;5.33;;;;;19.73;58.77;98362.34;4946154;28;102604;-93
2022/09/12 23:52:28;;;;;;;;;6.00;4.33;;;;;19.69;58.90;98347.50;4946487;28;103480;-92
2022/09/12 23:54:55;;;;;;;;;5.00;4.33;;;;;19.70;58.76;98358.22;4944805;28;102415;-93
2022/09/12 23:57:22;;;;;;;;;6.00;4.00;;;;;19.70;58.56;98346.44;4939000;28;104328;-92
2022/09/12 23:59:49;;;;;;;;;6.00;5.00;;;;;19.69;58.71;98344.78;4940763;28;103594;-92
